• Join FlightAware (Why Join?)
  • Login
  • US Flag 
03:31PM EDT


 

Airport Tracker/Info


-or-


 

Live Flight TrackerFlight Track Log ✈ LRC690 ✈ 17-Jun-2013 ✈ SKBO / BOG - MROC / SJO

Flight Track Log - Related Links

Times and Time Zones

All times are in EDT time to prevent confusion due to time zone crossing. See the LRC690 flight status page for this flight to view local times or setup timezone preferences in your user account.

Time Position Orientation Groundspeed Altitude Reporting Facility
EDT Latitude Longitude Course Direction KTS MPH feet Rate Location/Type
04:25PM 4.6790 -74.1280 128° Southeast 9,300  Level FlightAware
04:25PM 4.6610 -74.1110 137° Southeast 10,100 1,560 Climbing FlightAware
04:26PM 4.6370 -74.1170 194° South 10,700 1,260 Climbing FlightAware
04:26PM 4.6110 -74.1500 232° Southwest 11,500 1,080 Climbing FlightAware
04:27PM 4.5950 -74.1990 252° West 12,300 1,080 Climbing FlightAware
04:28PM 4.6000 -74.2550 275° West 13,600 1,920 Climbing FlightAware
04:28PM 4.6090 -74.2920 284° West 14,500 1,920 Climbing FlightAware
04:29PM 4.6330 -74.3540 291° West 15,500 1,380 Climbing FlightAware
04:30PM 4.6600 -74.4120 295° West 16,800 1,800 Climbing FlightAware
04:30PM 4.6790 -74.4780 286° West 18,300 2,100 Climbing FlightAware
04:31PM 4.6970 -74.5320 288° West 18,800 840 Climbing FlightAware
04:34PM 4.8405 -74.7872 299° West  Level Estimated
04:35PM 4.8950 -74.8841 299° West  Level Estimated
04:36PM 4.9494 -74.9810 299° West  Level Estimated
04:37PM 5.0039 -75.0780 299° West  Level Estimated
04:38PM 5.0583 -75.1749 299° West  Level Estimated
04:39PM 5.1127 -75.2719 299° West  Level Estimated
04:40PM 5.1671 -75.3689 299° West  Level Estimated
04:41PM 5.2215 -75.4660 299° West  Level Estimated
04:42PM 5.2759 -75.5630 299° West  Level Estimated
04:43PM 5.3302 -75.6600 299° West  Level Estimated
04:44PM 5.3846 -75.7571 299° West  Level Estimated
04:45PM 5.4389 -75.8542 299° West  Level Estimated
04:46PM 5.4932 -75.9513 299° West  Level Estimated
04:47PM 5.5475 -76.0484 299° West  Level Estimated
04:48PM 5.6017 -76.1456 299° West  Level Estimated
04:49PM 5.6560 -76.2427 299° West  Level Estimated
04:50PM 5.7102 -76.3399 299° West  Level Estimated
04:51PM 5.7645 -76.4371 299° West  Level Estimated
04:52PM 5.8187 -76.5343 299° West  Level Estimated
04:53PM 5.8729 -76.6316 299° West  Level Estimated
04:54PM 5.9271 -76.7288 299° West  Level Estimated
04:55PM 5.9812 -76.8261 299° West  Level Estimated
04:56PM 6.0354 -76.9234 299° West  Level Estimated
04:57PM 6.0895 -77.0207 299° West  Level Estimated
04:58PM 6.1436 -77.1180 299° West  Level Estimated
04:59PM 6.1977 -77.2154 299° West  Level Estimated
05:00PM 6.2518 -77.3127 299° West  Level Estimated
05:01PM 6.3058 -77.4101 299° West  Level Estimated
05:02PM 6.3598 -77.5075 299° West  Level Estimated
05:03PM 6.4139 -77.6050 299° West  Level Estimated
05:04PM 6.4679 -77.7024 299° West  Level Estimated
05:05PM 6.5219 -77.7999 299° West  Level Estimated
05:06PM 6.5758 -77.8974 299° West  Level Estimated
05:07PM 6.6297 -77.9949 299° West  Level Estimated
05:08PM 6.6837 -78.0924 299° West  Level Estimated
05:09PM 6.7376 -78.1900 299° West  Level Estimated
05:10PM 6.7915 -78.2876 299° West  Level Estimated
05:11PM 6.8453 -78.3852 299° West  Level Estimated
05:12PM 6.8992 -78.4828 299° West  Level Estimated
05:13PM 6.9530 -78.5804 299° West  Level Estimated
05:14PM 7.0068 -78.6781 299° West  Level Estimated
05:15PM 7.0606 -78.7758 299° West  Level Estimated
05:16PM 7.1144 -78.8735 299° West  Level Estimated
05:17PM 7.1681 -78.9712 299° West  Level Estimated
05:18PM 7.2219 -79.0690 299° West  Level Estimated
05:19PM 7.2756 -79.1668 299° West  Level Estimated
05:20PM 7.3292 -79.2646 299° West  Level Estimated
05:21PM 7.3829 -79.3624 299° West  Level Estimated
05:22PM 7.4366 -79.4603 299° West  Level Estimated
05:23PM 7.4902 -79.5582 299° West  Level Estimated
05:24PM 7.5438 -79.6561 299° West  Level Estimated
05:25PM 7.5974 -79.7540 299° West  Level Estimated
05:26PM 7.6509 -79.8519 299° West  Level Estimated
05:27PM 7.7044 -79.9499 299° West  Level Estimated
05:28PM 7.7579 -80.0479 299° West  Level Estimated
05:29PM 7.8114 -80.1459 299° West  Level Estimated
05:30PM 7.8649 -80.2440 299° West  Level Estimated
05:31PM 7.9183 -80.3420 299° West  Level Estimated
05:32PM 7.9718 -80.4401 299° West  Level Estimated
05:33PM 8.0252 -80.5383 299° West  Level Estimated
05:34PM 8.0785 -80.6364 299° West  Level Estimated
05:35PM 8.1319 -80.7346 299° West  Level Estimated
05:36PM 8.1852 -80.8328 299° West  Level Estimated
05:37PM 8.2385 -80.9310 299° West  Level Estimated
05:38PM 8.2918 -81.0293 299° West  Level Estimated
05:39PM 8.3450 -81.1276 299° West  Level Estimated
05:40PM 8.3983 -81.2259 299° West  Level Estimated
05:41PM 8.4515 -81.3242 299° West  Level Estimated
05:42PM 8.5047 -81.4226 299° West  Level Estimated
05:43PM 8.5578 -81.5210 299° West  Level Estimated
05:43PM 8.9320 -82.9880 299° West 36,000  Level FlightAware
05:44PM 8.6110 -81.6194 299° West  Level Estimated
05:44PM 8.9740 -83.0820 294° West 35,300  Level FlightAware
05:44PM 9.0050 -83.1520 294° West 34,400 -1,620 Descending FlightAware
05:45PM 9.0330 -83.2550 285° West 32,800 -2,100 Descending FlightAware
05:46PM 9.0540 -83.3390 284° West 31,600 -1,800 Descending FlightAware
05:46PM 9.0800 -83.4380 285° West 30,300 -1,800 Descending FlightAware
05:47PM 9.1030 -83.5270 285° West 29,200 -1,620 Descending FlightAware
05:49PM 9.1730 -83.7000 292° West 27,200 -1,380 Descending FlightAware
05:49PM 9.2260 -83.7930 300° West 25,200 -2,820 Descending FlightAware
05:50PM 9.2660 -83.8650 299° West 23,200 -3,180 Descending FlightAware
05:50PM 9.2770 -83.8990 288° West 22,000 -4,500 Descending FlightAware
05:51PM 9.3130 -84.0410 284° West 18,600 -3,000 Descending FlightAware
05:52PM 9.3630 -84.1070 308° West 18,000 -900 Descending FlightAware
05:53PM 9.4130 -84.1730 308° West 16,100 -2,640 Descending FlightAware
05:53PM 9.4600 -84.2350 308° West 16,000 -180 Descending FlightAware
05:54PM 9.4970 -84.2840 307° West 15,100 -1,380 Descending FlightAware
05:57PM 9.7620 -84.2439 North  Level Estimated
05:58PM 9.8717 -84.2273 North  Level Estimated
05:59PM 9.9813 -84.2107 North  Level Estimated
06:00PM 9.9939 -84.2088 North  Level Estimated
06:00PM 9.8960 -84.4530 North 7,000  Level FlightAware
06:00PM 9.9050 -84.4420 50° Northeast 7,000  Level FlightAware
06:00PM 9.9120 -84.4280 63° Northeast 6,900 -420 Descending FlightAware
06:01PM 9.9200 -84.4070 69° East 6,600 -780 Descending FlightAware
06:01PM 9.9280 -84.3850 70° East 6,200 -1,020 Descending FlightAware
06:01PM 9.9370 -84.3590 71° East 5,600 -1,320 Descending FlightAware
06:02PM 9.9480 -84.3320 68° East 5,000 -1,200 Descending FlightAware
06:02PM 9.9510 -84.3220 73° East 4,800 -1,020 Descending FlightAware
06:03PM 9.9580 -84.3040 68° East 4,600 -540 Descending FlightAware
06:03PM 9.9630 -84.2910 69° East 4,300 -900 Descending FlightAware
06:03PM 9.9670 -84.2810 68° East 4,100 -1,020 Descending FlightAware
06:04PM 9.9760 -84.2560 70° East 3,600 -840 Descending FlightAware
06:06PM 10.0000 -84.2167 301° West  Level FlightAware Approximate
06:07PM 9.9939 -84.2088 301° West  Level Estimated
06:08PM 9.9939 -84.2088 301° West  Level Estimated
06:09PM 9.9939 -84.2088 301° West  Level Estimated
06:10PM 9.9939 -84.2088 301° West  Level Estimated
06:11PM 9.9939 -84.2088 301° West  Level Estimated
06:12PM 9.9939 -84.2088 301° West  Level Estimated
06:13PM 9.9939 -84.2088 301° West  Level Estimated
06:14PM 9.9939 -84.2088 301° West  Level Estimated
06:15PM 9.9939 -84.2088 301° West  Level Estimated
06:16PM 9.9939 -84.2088 301° West  Level Estimated
06:17PM 9.9939 -84.2088 301° West  Level Estimated
06:18PM 9.9939 -84.2088 301° West  Level Estimated
06:19PM 9.9939 -84.2088 301° West  Level Estimated
06:20PM 9.9939 -84.2088 301° West  Level Estimated
06:21PM 9.9939 -84.2088 301° West  Level Estimated
06:22PM 9.9939 -84.2088 301° West  Level Estimated
06:23PM 9.9939 -84.2088 301° West  Level Estimated